Time;durP1;ratioP1;P1;durP2;ratioP2;P2;SDS_P1;SDS_P2;PMS_P1;PMS_P2;Temp;Humidity;BMP_temperature;BMP_pressure;BME280_temperature;BME280_humidity;BME280_pressure;Samples;Min_cycle;Max_cycle;Signal;HPM_P1;HPM_P2
2023/05/06 00:02:09;;;;;;;23.35;18.75;;;12.00;99.90;;;;;;5023423;28;20377;-69
2023/05/06 00:04:35;;;;;;;23.70;18.77;;;11.90;99.90;;;;;;5025731;28;20061;-66
2023/05/06 00:07:01;;;;;;;21.83;19.17;;;12.00;99.90;;;;;;5025820;28;20408;-70
2023/05/06 00:09:27;;;;;;;22.70;19.00;;;12.00;99.90;;;;;;5025543;28;20069;-64
2023/05/06 00:11:52;;;;;;;21.15;18.08;;;12.00;99.90;;;;;;5022953;28;20037;-65
2023/05/06 00:14:18;;;;;;;24.65;19.80;;;12.00;99.90;;;;;;5023450;28;20496;-68
2023/05/06 00:16:44;;;;;;;21.77;19.35;;;11.90;99.90;;;;;;5022845;28;20558;-67
2023/05/06 00:19:10;;;;;;;23.05;20.02;;;11.90;99.90;;;;;;5022614;28;20045;-71
2023/05/06 00:21:37;;;;;;;27.02;22.10;;;11.90;99.90;;;;;;5004795;28;20451;-71
2023/05/06 00:24:02;;;;;;;25.58;21.25;;;11.90;99.90;;;;;;5022915;28;20080;-65
2023/05/06 00:26:28;;;;;;;28.58;23.13;;;11.90;99.90;;;;;;5024887;28;20080;-63
2023/05/06 00:28:54;;;;;;;30.33;23.48;;;11.90;99.90;;;;;;5008314;28;20124;-56
2023/05/06 00:31:20;;;;;;;30.25;24.45;;;12.00;99.90;;;;;;5025015;28;20593;-59
2023/05/06 00:33:46;;;;;;;27.60;23.63;;;12.00;99.90;;;;;;5022354;28;20048;-57
2023/05/06 00:36:11;;;;;;;27.88;23.25;;;12.00;99.90;;;;;;5021242;28;20107;-61
2023/05/06 00:38:37;;;;;;;30.65;23.52;;;11.90;99.90;;;;;;5022703;28;20396;-60
2023/05/06 00:41:03;;;;;;;29.63;23.35;;;11.90;99.90;;;;;;5022639;28;20052;-56
2023/05/06 00:43:29;;;;;;;28.05;22.73;;;11.90;99.90;;;;;;5022046;28;20038;-59
2023/05/06 00:45:54;;;;;;;31.63;24.52;;;11.90;99.90;;;;;;5022220;28;20126;-62
2023/05/06 00:48:21;;;;;;;30.73;23.25;;;11.80;99.90;;;;;;5022447;28;20046;-59
2023/05/06 00:50:46;;;;;;;27.80;22.05;;;11.80;99.90;;;;;;5021561;28;20051;-64
2023/05/06 00:53:12;;;;;;;29.77;22.38;;;11.80;99.90;;;;;;5021686;28;20045;-63
2023/05/06 00:55:39;;;;;;;28.30;21.92;;;11.70;99.90;;;;;;5022636;28;20037;-68
2023/05/06 00:58:05;;;;;;;26.98;20.85;;;11.70;99.90;;;;;;5022886;28;20057;-64
2023/05/06 01:00:31;;;;;;;27.50;21.30;;;11.60;99.90;;;;;;5021755;28;20042;-67
2023/05/06 01:02:56;;;;;;;28.35;21.83;;;11.60;99.90;;;;;;5021300;28;20132;-68
2023/05/06 01:05:28;;;;;;;26.50;21.88;;;11.60;99.90;;;;;;5021614;28;20046;-68
2023/05/06 01:08:16;;;;;;;27.23;21.92;;;11.50;99.90;;;;;;5021021;28;20496;-58
2023/05/06 01:10:52;;;;;;;25.73;20.95;;;11.50;99.90;;;;;;5021851;28;20496;-70
2023/05/06 01:13:41;;;;;;;26.02;20.88;;;11.40;99.90;;;;;;5021159;28;20381;-58
2023/05/06 01:16:09;;;;;;;26.95;19.77;;;11.40;99.90;;;;;;5022097;28;20048;-67
2023/05/06 01:18:37;;;;;;;23.27;19.25;;;11.40;99.90;;;;;;5021492;28;20080;-65
2023/05/06 01:21:04;;;;;;;31.58;20.15;;;11.30;99.90;;;;;;5021090;28;20080;-62
2023/05/06 01:23:54;;;;;;;29.27;20.63;;;11.30;99.90;;;;;;5021628;28;20492;-56
2023/05/06 01:26:21;;;;;;;24.80;19.50;;;11.30;99.90;;;;;;5021509;28;20085;-66
2023/05/06 01:28:47;;;;;;;25.95;19.60;;;11.20;99.90;;;;;;5021634;28;20045;-68
2023/05/06 01:31:19;;;;;;;23.27;19.00;;;11.20;99.90;;;;;;5021463;28;20052;-53
2023/05/06 01:33:53;;;;;;;22.67;18.17;;;11.20;99.90;;;;;;5021719;28;20084;-59
2023/05/06 01:36:41;;;;;;;25.30;20.05;;;11.10;99.90;;;;;;5020499;28;20039;-69
2023/05/06 01:39:13;;;;;;;23.70;18.50;;;11.10;99.90;;;;;;5021205;28;20405;-58
2023/05/06 01:41:40;;;;;;;25.45;18.60;;;11.10;99.90;;;;;;5021765;28;20041;-68
2023/05/06 01:44:07;;;;;;;21.88;17.58;;;11.00;99.90;;;;;;5002928;28;20056;-70
2023/05/06 01:46:34;;;;;;;21.30;18.00;;;11.00;99.90;;;;;;5003907;28;20096;-68
2023/05/06 01:49:04;;;;;;;21.02;17.40;;;11.00;99.90;;;;;;5021592;28;20049;-50
2023/05/06 01:51:32;;;;;;;21.75;17.75;;;11.10;99.90;;;;;;5020266;28;20049;-61
2023/05/06 01:53:58;;;;;;;21.55;16.98;;;11.10;99.90;;;;;;5021136;28;20095;-65
2023/05/06 01:56:25;;;;;;;17.45;15.50;;;11.10;99.90;;;;;;5021179;28;20045;-69
2023/05/06 01:58:51;;;;;;;18.00;15.80;;;11.00;99.90;;;;;;5020159;28;20480;-65
2023/05/06 02:01:17;;;;;;;17.35;15.55;;;11.00;99.90;;;;;;5020851;28;20065;-68
2023/05/06 02:03:42;;;;;;;16.10;14.38;;;11.00;99.90;;;;;;5021372;28;20033;-54
2023/05/06 02:06:08;;;;;;;18.45;15.07;;;11.00;99.90;;;;;;5020449;28;20057;-70
2023/05/06 02:08:34;;;;;;;15.10;13.48;;;11.00;99.90;;;;;;5002187;28;20446;-65
2023/05/06 02:11:00;;;;;;;17.13;13.75;;;10.90;99.90;;;;;;5020493;28;20053;-62
2023/05/06 02:13:25;;;;;;;16.00;13.82;;;10.90;99.90;;;;;;5020919;28;20051;-69
2023/05/06 02:15:53;;;;;;;14.52;13.02;;;10.90;99.90;;;;;;5001738;28;20049;-67
2023/05/06 02:18:18;;;;;;;16.48;13.52;;;10.90;99.90;;;;;;5021377;28;20049;-65
2023/05/06 02:20:44;;;;;;;23.75;14.25;;;10.80;99.90;;;;;;5020527;28;20500;-59
2023/05/06 02:23:10;;;;;;;34.08;15.38;;;10.80;99.90;;;;;;5021224;28;20046;-58
2023/05/06 02:25:36;;;;;;;66.88;13.73;;;10.70;99.90;;;;;;5020234;28;20103;-60
2023/05/06 02:28:01;;;;;;;15.57;12.85;;;10.60;99.90;;;;;;5020944;28;20049;-58
2023/05/06 02:30:29;;;;;;;28.75;14.07;;;10.50;99.90;;;;;;5020784;28;20060;-62
2023/05/06 02:32:56;;;;;;;30.42;15.35;;;10.50;99.90;;;;;;5002838;28;20253;-63
2023/05/06 02:35:22;;;;;;;16.27;14.55;;;10.50;99.90;;;;;;5019952;28;20426;-63
2023/05/06 02:37:47;;;;;;;18.42;15.43;;;10.50;99.90;;;;;;5002814;28;20171;-68
2023/05/06 02:40:13;;;;;;;17.42;15.38;;;10.50;99.90;;;;;;5020077;28;20234;-53
2023/05/06 02:42:39;;;;;;;18.27;15.32;;;10.50;99.90;;;;;;5020903;28;20401;-69
2023/05/06 02:45:05;;;;;;;19.45;15.40;;;10.40;99.90;;;;;;5020711;28;20326;-69
2023/05/06 02:47:31;;;;;;;28.67;15.07;;;10.40;99.90;;;;;;5020409;28;20353;-64
2023/05/06 02:49:57;;;;;;;128.20;19.10;;;10.30;99.90;;;;;;5019324;28;20054;-66
2023/05/06 02:52:22;;;;;;;32.40;15.07;;;10.20;99.90;;;;;;5020736;28;20080;-53
2023/05/06 02:54:48;;;;;;;42.85;13.60;;;10.20;99.90;;;;;;5020507;28;20054;-69
2023/05/06 02:57:14;;;;;;;60.95;13.48;;;10.20;99.90;;;;;;5019926;28;20480;-53
2023/05/06 02:59:39;;;;;;;39.15;11.00;;;10.20;99.90;;;;;;5020574;28;20095;-60
2023/05/06 03:02:05;;;;;;;47.03;9.95;;;10.30;99.90;;;;;;5020699;28;20389;-67
2023/05/06 03:04:31;;;;;;;58.25;9.95;;;10.30;99.90;;;;;;5019948;28;20381;-70
2023/05/06 03:06:56;;;;;;;63.25;10.10;;;10.30;99.90;;;;;;5019798;28;20053;-57
2023/05/06 03:09:22;;;;;;;11.80;9.55;;;10.30;99.90;;;;;;5020194;28;20080;-69
2023/05/06 03:11:48;;;;;;;67.50;10.35;;;10.20;99.90;;;;;;5020404;28;20041;-55
2023/05/06 03:14:14;;;;;;;44.95;9.73;;;10.20;99.90;;;;;;5020845;28;20054;-62
2023/05/06 03:16:40;;;;;;;48.80;9.98;;;10.10;99.90;;;;;;5020831;28;20116;-63
2023/05/06 03:19:06;;;;;;;13.48;9.57;;;10.10;99.90;;;;;;5019826;28;20540;-56
2023/05/06 03:21:32;;;;;;;46.47;9.52;;;10.10;99.90;;;;;;5020442;28;20037;-58
2023/05/06 03:23:57;;;;;;;57.25;9.80;;;10.10;99.90;;;;;;5019562;28;20235;-59
2023/05/06 03:26:23;;;;;;;10.15;9.18;;;10.00;99.90;;;;;;5022436;28;20048;-61
2023/05/06 03:28:49;;;;;;;30.02;10.02;;;10.00;99.90;;;;;;5023875;28;20090;-57
2023/05/06 03:31:15;;;;;;;28.85;9.57;;;10.10;99.90;;;;;;5023298;28;20072;-58
2023/05/06 03:33:40;;;;;;;39.47;9.30;;;10.10;99.90;;;;;;5006521;28;20428;-61
2023/05/06 03:36:06;;;;;;;32.25;9.45;;;10.10;99.90;;;;;;5023101;28;20045;-61
2023/05/06 03:38:32;;;;;;;27.60;9.30;;;10.10;99.90;;;;;;5023532;28;20099;-62
2023/05/06 03:40:58;;;;;;;21.85;9.15;;;10.10;99.90;;;;;;5023355;28;20045;-63
2023/05/06 03:43:24;;;;;;;39.20;8.80;;;10.00;99.90;;;;;;5023457;28;20535;-61
2023/05/06 03:45:49;;;;;;;12.63;10.25;;;10.00;99.90;;;;;;5023617;28;20388;-67
2023/05/06 03:48:15;;;;;;;42.80;10.10;;;10.00;99.90;;;;;;5023289;28;20054;-66
2023/05/06 03:50:41;;;;;;;143.57;11.70;;;10.00;99.90;;;;;;5022779;28;20041;-61
2023/05/06 03:53:07;;;;;;;77.00;10.32;;;9.90;99.90;;;;;;5005881;28;20909;-69
2023/05/06 03:55:32;;;;;;;139.35;10.93;;;9.90;99.90;;;;;;5023213;28;20049;-64
2023/05/06 03:57:59;;;;;;;47.58;11.63;;;9.80;99.90;;;;;;5022559;28;20037;-69
2023/05/06 04:00:25;;;;;;;17.10;11.88;;;9.80;99.90;;;;;;5022824;28;20075;-64
2023/05/06 04:02:50;;;;;;;87.47;10.82;;;9.80;99.90;;;;;;5023483;28;20534;-64
2023/05/06 04:05:16;;;;;;;107.30;11.02;;;9.80;99.90;;;;;;5022011;28;20049;-69
2023/05/06 04:07:42;;;;;;;91.68;11.48;;;9.80;99.90;;;;;;5022986;28;20061;-65
2023/05/06 04:10:08;;;;;;;75.90;10.63;;;9.80;99.90;;;;;;5023491;28;20519;-70
2023/05/06 04:12:34;;;;;;;68.80;11.57;;;9.80;99.90;;;;;;5023344;28;20037;-61
2023/05/06 04:14:59;;;;;;;95.57;10.98;;;9.80;99.90;;;;;;5022204;28;20048;-67
2023/05/06 04:17:25;;;;;;;67.63;10.88;;;9.70;99.90;;;;;;5023016;28;20589;-65
2023/05/06 04:19:52;;;;;;;72.80;11.25;;;9.60;99.90;;;;;;5022346;28;20373;-57
2023/05/06 04:22:18;;;;;;;45.80;11.60;;;9.60;99.90;;;;;;5022835;28;20042;-58
2023/05/06 04:24:44;;;;;;;47.25;11.70;;;9.60;99.90;;;;;;5023019;28;20072;-59
2023/05/06 04:27:10;;;;;;;61.30;12.48;;;9.70;99.90;;;;;;5022949;28;20040;-53
2023/05/06 04:29:36;;;;;;;31.50;12.30;;;9.60;99.90;;;;;;5023024;28;20052;-60
2023/05/06 04:32:03;;;;;;;28.60;13.05;;;9.70;99.90;;;;;;5004446;28;20071;-57
2023/05/06 04:34:29;;;;;;;23.67;13.18;;;9.70;99.90;;;;;;5004208;28;20103;-63
2023/05/06 04:36:57;;;;;;;21.75;13.35;;;9.70;99.90;;;;;;5004399;28;20049;-65
2023/05/06 04:39:23;;;;;;;28.25;14.05;;;9.80;99.90;;;;;;5021368;28;20044;-58
2023/05/06 04:41:49;;;;;;;22.23;14.05;;;9.80;99.90;;;;;;5023113;28;20417;-68
2023/05/06 04:44:15;;;;;;;26.20;13.98;;;9.90;99.90;;;;;;5022680;28;20103;-64
2023/05/06 04:46:41;;;;;;;19.90;15.20;;;9.90;99.90;;;;;;5021764;28;20086;-69
2023/05/06 04:49:06;;;;;;;23.38;16.98;;;9.90;99.90;;;;;;5022153;28;20123;-64
2023/05/06 04:51:32;;;;;;;21.88;16.10;;;9.90;99.90;;;;;;5022435;28;20517;-68
2023/05/06 04:53:58;;;;;;;26.17;18.33;;;9.60;99.90;;;;;;5022476;28;20443;-65
2023/05/06 04:56:23;;;;;;;29.25;18.52;;;9.90;99.90;;;;;;5003712;28;20068;-69
2023/05/06 04:58:49;;;;;;;42.05;18.45;;;9.90;99.90;;;;;;5022653;28;20072;-64
2023/05/06 05:01:15;;;;;;;53.13;19.83;;;10.00;99.90;;;;;;5022374;28;20041;-49
2023/05/06 05:03:40;;;;;;;54.05;21.27;;;10.10;99.90;;;;;;5021484;28;20049;-66
2023/05/06 05:06:06;;;;;;;48.70;23.15;;;10.10;99.90;;;;;;5021285;28;20045;-63
2023/05/06 05:08:32;;;;;;;32.53;23.63;;;10.10;99.90;;;;;;5021883;28;20373;-62
2023/05/06 05:10:57;;;;;;;30.13;22.70;;;10.20;99.90;;;;;;5004154;28;20061;-62
2023/05/06 05:13:23;;;;;;;27.15;21.52;;;10.40;99.90;;;;;;5021729;28;20045;-60
2023/05/06 05:15:53;;;;;;;22.95;20.45;;;10.60;99.90;;;;;;5022425;28;20041;-58
2023/05/06 05:18:19;;;;;;;25.17;22.55;;;10.80;99.90;;;;;;5022477;28;20037;-54
2023/05/06 05:20:44;;;;;;;23.33;20.63;;;10.90;99.90;;;;;;5020525;28;20641;-66
2023/05/06 05:23:10;;;;;;;23.98;21.45;;;11.10;99.90;;;;;;5021566;28;20606;-65
2023/05/06 05:25:36;;;;;;;22.33;19.92;;;11.20;99.90;;;;;;5021889;28;20484;-69
2023/05/06 05:28:01;;;;;;;23.23;20.77;;;11.40;99.90;;;;;;5021634;28;20638;-61
2023/05/06 05:30:27;;;;;;;21.65;19.48;;;11.50;99.90;;;;;;5021637;28;20052;-70
2023/05/06 05:32:52;;;;;;;19.73;17.73;;;11.70;99.90;;;;;;5021941;28;20058;-52
2023/05/06 05:35:18;;;;;;;19.35;17.17;;;11.70;99.90;;;;;;5020872;28;20045;-71
2023/05/06 05:37:44;;;;;;;21.02;18.55;;;11.70;99.90;;;;;;5021031;28;20485;-68
2023/05/06 05:40:10;;;;;;;24.05;17.35;;;11.60;99.90;;;;;;5021357;28;20045;-59
2023/05/06 05:42:35;;;;;;;19.65;17.25;;;11.60;99.90;;;;;;5003857;28;20037;-66
2023/05/06 05:45:01;;;;;;;21.63;17.70;;;11.50;99.90;;;;;;5021088;28;20045;-65
2023/05/06 05:47:27;;;;;;;20.05;17.95;;;11.40;99.90;;;;;;5023712;28;20049;-60
2023/05/06 05:49:53;;;;;;;25.95;18.85;;;11.40;99.90;;;;;;5023968;28;20048;-69
2023/05/06 05:52:18;;;;;;;21.67;19.35;;;11.40;99.90;;;;;;5023861;28;20055;-53
2023/05/06 05:54:44;;;;;;;20.58;18.30;;;11.50;99.90;;;;;;5020830;28;20053;-69
2023/05/06 05:57:10;;;;;;;21.55;19.02;;;11.50;99.90;;;;;;5021561;28;20511;-68
2023/05/06 05:59:36;;;;;;;20.58;18.35;;;11.50;99.90;;;;;;5021464;28;20049;-62
2023/05/06 06:02:01;;;;;;;20.73;17.60;;;11.50;99.90;;;;;;5020861;28;20651;-60
2023/05/06 06:04:27;;;;;;;19.40;17.38;;;11.50;99.90;;;;;;5019906;28;20041;-64
2023/05/06 06:06:56;;;;;;;19.42;17.33;;;11.50;99.90;;;;;;5021474;28;20095;-61
2023/05/06 06:09:22;;;;;;;18.52;16.52;;;11.50;99.90;;;;;;5003386;28;20283;-59
2023/05/06 06:11:48;;;;;;;20.70;18.50;;;11.50;99.90;;;;;;5020144;28;20053;-61
2023/05/06 06:14:13;;;;;;;18.73;16.80;;;11.50;99.90;;;;;;5020822;28;20152;-63
2023/05/06 06:16:39;;;;;;;18.83;16.90;;;11.50;99.90;;;;;;5020734;28;20045;-65
2023/05/06 06:19:05;;;;;;;20.60;18.40;;;11.50;99.90;;;;;;5019501;28;20041;-64
2023/05/06 06:21:31;;;;;;;22.05;18.15;;;11.50;99.90;;;;;;5020864;28;20124;-66
2023/05/06 06:23:56;;;;;;;21.63;18.75;;;11.60;99.90;;;;;;5021102;28;20072;-68
2023/05/06 06:26:22;;;;;;;20.40;18.38;;;11.60;99.90;;;;;;5021019;28;20126;-68
2023/05/06 06:28:48;;;;;;;20.92;18.42;;;11.70;99.90;;;;;;5002496;28;20350;-72
2023/05/06 06:31:13;;;;;;;19.48;17.50;;;11.80;99.90;;;;;;5020713;28;20363;-66
2023/05/06 06:33:39;;;;;;;21.02;18.83;;;11.90;99.90;;;;;;5020299;28;20532;-71
2023/05/06 06:36:05;;;;;;;20.13;17.73;;;11.90;99.90;;;;;;5019765;28;20504;-70
2023/05/06 06:38:31;;;;;;;21.90;18.65;;;11.90;99.90;;;;;;5020884;28;20041;-69
2023/05/06 06:40:56;;;;;;;21.80;18.90;;;12.00;99.90;;;;;;5020670;28;20124;-55
2023/05/06 06:43:23;;;;;;;19.70;17.75;;;12.20;99.90;;;;;;5020729;28;20044;-71
2023/05/06 06:45:49;;;;;;;20.38;17.80;;;12.40;99.90;;;;;;5019911;28;20430;-72
2023/05/06 06:48:15;;;;;;;19.17;17.27;;;12.60;99.90;;;;;;5020727;28;20483;-70
2023/05/06 06:50:41;;;;;;;20.02;16.90;;;12.70;99.90;;;;;;5019865;28;20116;-59
2023/05/06 06:53:08;;;;;;;18.70;16.90;;;12.60;99.90;;;;;;5002227;28;20045;-64
2023/05/06 06:55:34;;;;;;;20.30;15.60;;;12.50;99.90;;;;;;5020792;28;20046;-62
2023/05/06 06:57:59;;;;;;;18.77;16.77;;;12.40;99.90;;;;;;5020858;28;20045;-59
2023/05/06 07:00:25;;;;;;;20.13;18.02;;;12.40;99.90;;;;;;5021171;28;20042;-60
2023/05/06 07:02:51;;;;;;;19.52;17.50;;;12.30;99.90;;;;;;5024597;28;20042;-62
2023/05/06 07:05:17;;;;;;;18.30;16.30;;;12.30;99.90;;;;;;5023686;28;20061;-60
2023/05/06 07:07:43;;;;;;;18.60;16.60;;;12.30;99.90;;;;;;5023906;28;20088;-59
2023/05/06 07:10:09;;;;;;;19.15;16.90;;;12.40;99.90;;;;;;5023799;28;20077;-60
2023/05/06 07:12:34;;;;;;;18.60;16.60;;;12.30;99.90;;;;;;5024203;28;20043;-62
2023/05/06 07:15:00;;;;;;;18.83;16.83;;;12.40;99.90;;;;;;5024021;28;20408;-56
2023/05/06 07:17:26;;;;;;;21.58;18.63;;;12.40;99.90;;;;;;5026307;28;20124;-66
2023/05/06 07:19:51;;;;;;;22.85;18.85;;;12.40;99.90;;;;;;5025652;28;20401;-69
2023/05/06 07:22:17;;;;;;;21.95;18.52;;;12.50;99.90;;;;;;5026393;28;20456;-63
2023/05/06 07:24:43;;;;;;;22.48;18.98;;;12.50;99.90;;;;;;5024196;28;20508;-68
2023/05/06 07:27:09;;;;;;;24.20;20.92;;;12.60;99.90;;;;;;5023257;28;20046;-64
2023/05/06 07:29:35;;;;;;;19.77;17.05;;;12.60;99.90;;;;;;5023808;28;20454;-65
2023/05/06 07:32:01;;;;;;;22.25;19.13;;;12.70;99.90;;;;;;5024023;28;20408;-66
2023/05/06 07:34:27;;;;;;;23.52;19.17;;;12.60;99.90;;;;;;5023134;28;20080;-67
2023/05/06 07:36:53;;;;;;;21.67;18.88;;;12.70;99.90;;;;;;5023627;28;20081;-68
2023/05/06 07:39:18;;;;;;;22.38;19.05;;;12.70;99.90;;;;;;5023700;28;20229;-65
2023/05/06 07:41:44;;;;;;;20.55;18.05;;;12.70;99.90;;;;;;5023831;28;20049;-68
2023/05/06 07:44:10;;;;;;;20.38;18.05;;;12.70;99.90;;;;;;5022638;28;20201;-55
2023/05/06 07:46:36;;;;;;;21.38;18.98;;;12.80;99.90;;;;;;5024042;28;20136;-71
2023/05/06 07:49:02;;;;;;;21.63;19.40;;;12.80;99.90;;;;;;5022551;28;20033;-69
2023/05/06 07:51:28;;;;;;;23.98;21.00;;;12.80;99.90;;;;;;5023171;28;20037;-64
2023/05/06 07:53:53;;;;;;;22.58;18.75;;;12.80;99.90;;;;;;5023148;28;20121;-62
2023/05/06 07:56:19;;;;;;;23.65;19.60;;;12.80;99.90;;;;;;5023476;28;20053;-58
2023/05/06 07:58:45;;;;;;;22.50;20.08;;;12.80;99.90;;;;;;5017897;28;20061;-63
2023/05/06 08:01:10;;;;;;;23.75;19.75;;;12.80;99.90;;;;;;5021438;28;20072;-61
2023/05/06 08:03:36;;;;;;;22.77;19.23;;;12.90;99.90;;;;;;5007869;28;20057;-58
2023/05/06 08:06:02;;;;;;;23.17;20.63;;;12.90;99.90;;;;;;5011807;28;20046;-64
2023/05/06 08:08:28;;;;;;;24.05;20.52;;;12.90;99.90;;;;;;5012998;28;20054;-63
2023/05/06 08:10:55;;;;;;;25.63;20.98;;;12.90;99.90;;;;;;5014188;28;20492;-59
2023/05/06 08:13:20;;;;;;;24.50;20.60;;;12.90;99.90;;;;;;5009929;28;20323;-61
2023/05/06 08:15:46;;;;;;;25.10;20.67;;;12.90;99.90;;;;;;5021664;28;20099;-58
2023/05/06 08:18:12;;;;;;;24.50;21.83;;;12.90;99.90;;;;;;5002992;28;20073;-58
2023/05/06 08:20:37;;;;;;;25.70;22.83;;;12.90;99.90;;;;;;5022061;28;20029;-59
2023/05/06 08:23:03;;;;;;;23.13;20.63;;;13.00;99.90;;;;;;5021004;28;20535;-60
2023/05/06 08:25:29;;;;;;;23.10;20.33;;;13.00;99.90;;;;;;5020687;28;20053;-65
2023/05/06 08:27:55;;;;;;;22.95;20.45;;;13.00;99.90;;;;;;5020200;28;20033;-65
2023/05/06 08:30:20;;;;;;;26.05;21.45;;;13.00;99.90;;;;;;5020119;28;20420;-63
2023/05/06 08:32:46;;;;;;;25.35;20.92;;;13.10;99.90;;;;;;5020680;28;20045;-64
2023/05/06 08:35:12;;;;;;;23.83;20.80;;;13.20;99.90;;;;;;5019278;28;20057;-65
2023/05/06 08:37:40;;;;;;;23.88;20.25;;;13.20;99.90;;;;;;5020857;28;20219;-67
2023/05/06 08:40:18;;;;;;;23.05;20.55;;;13.20;99.90;;;;;;5021119;28;20546;-69
2023/05/06 08:42:45;;;;;;;23.65;21.10;;;13.30;99.90;;;;;;5020064;28;20492;-62
2023/05/06 08:45:11;;;;;;;24.05;21.05;;;13.40;99.90;;;;;;5020312;28;20250;-58
2023/05/06 08:47:37;;;;;;;24.80;19.92;;;13.40;99.90;;;;;;5020416;28;20220;-64
2023/05/06 08:50:03;;;;;;;23.00;20.02;;;13.50;99.90;;;;;;5020226;28;20614;-57
2023/05/06 08:52:30;;;;;;;23.65;21.10;;;13.60;99.90;;;;;;5020112;28;20125;-68
2023/05/06 08:55:00;;;;;;;22.90;19.20;;;13.70;99.90;;;;;;5020642;28;20100;-69
2023/05/06 08:57:29;;;;;;;20.77;18.23;;;13.80;99.90;;;;;;5019827;28;20057;-61
2023/05/06 08:59:55;;;;;;;19.70;16.90;;;13.90;99.90;;;;;;4998478;28;20794;-58
2023/05/06 09:02:21;;;;;;;22.90;17.73;;;14.00;99.90;;;;;;5000492;28;20077;-61
2023/05/06 09:04:48;;;;;;;21.15;17.08;;;14.00;99.90;;;;;;4999912;28;20041;-62
2023/05/06 09:07:13;;;;;;;20.60;17.65;;;14.10;99.90;;;;;;4999762;28;20103;-52
2023/05/06 09:09:39;;;;;;;22.05;18.95;;;14.30;99.90;;;;;;5007365;28;20460;-67
2023/05/06 09:12:12;;;;;;;22.88;16.33;;;14.70;99.90;;;;;;5008908;28;20053;-69
2023/05/06 09:14:38;;;;;;;20.70;17.25;;;15.00;99.90;;;;;;5010974;28;20094;-70
2023/05/06 09:17:05;;;;;;;18.48;16.20;;;15.30;99.90;;;;;;5009776;28;20045;-58
2023/05/06 09:19:31;;;;;;;16.88;14.57;;;15.60;99.90;;;;;;5008175;28;20048;-58
2023/05/06 09:21:57;;;;;;;18.52;15.68;;;15.70;99.90;;;;;;5013742;28;20540;-67
2023/05/06 09:24:23;;;;;;;17.98;15.27;;;15.90;99.90;;;;;;5018803;28;20082;-57
2023/05/06 09:26:54;;;;;;;18.13;14.90;;;16.10;99.90;;;;;;5019516;28;20413;-57
2023/05/06 09:29:20;;;;;;;16.85;13.70;;;16.20;99.90;;;;;;5019470;28;20046;-67
2023/05/06 09:31:47;;;;;;;15.20;13.30;;;16.50;99.90;;;;;;5020030;28;20049;-66
2023/05/06 09:34:14;;;;;;;15.05;13.18;;;16.70;99.90;;;;;;5019086;28;20167;-65
2023/05/06 09:36:40;;;;;;;15.70;13.45;;;17.00;99.90;;;;;;5019676;28;20041;-52
2023/05/06 09:39:07;;;;;;;17.33;13.18;;;17.30;99.90;;;;;;5019919;28;20050;-69
2023/05/06 09:41:33;;;;;;;14.82;11.30;;;17.40;99.90;;;;;;5018610;28;20068;-65
2023/05/06 09:43:58;;;;;;;15.57;12.80;;;17.70;99.90;;;;;;5005780;28;20471;-71
2023/05/06 09:46:26;;;;;;;14.18;12.27;;;17.80;99.90;;;;;;4999763;28;20376;-63
2023/05/06 09:48:54;;;;;;;16.60;13.10;;;18.00;99.90;;;;;;4999223;28;20046;-52
2023/05/06 09:51:20;;;;;;;15.52;12.15;;;18.20;99.90;;;;;;4999598;28;20054;-61
2023/05/06 09:53:46;;;;;;;15.35;12.68;;;18.40;99.90;;;;;;4998705;28;20053;-62
2023/05/06 09:56:13;;;;;;;15.32;11.55;;;18.50;99.90;;;;;;4999369;28;20129;-62
2023/05/06 09:58:39;;;;;;;15.15;12.07;;;18.60;99.90;;;;;;4998947;28;20064;-73
2023/05/06 10:01:06;;;;;;;14.10;12.13;;;18.70;99.90;;;;;;5000344;28;20125;-73
2023/05/06 10:03:33;;;;;;;13.85;11.40;;;18.80;99.90;;;;;;4998733;28;20072;-58
2023/05/06 10:06:04;;;;;;;12.90;10.55;;;18.90;99.90;;;;;;4999263;28;20136;-68
2023/05/06 10:08:33;;;;;;;13.82;11.57;;;18.70;99.90;;;;;;4999170;28;20176;-56
2023/05/06 10:11:00;;;;;;;13.18;10.52;;;18.80;99.90;;;;;;4999667;28;20534;-67
2023/05/06 10:13:27;;;;;;;13.18;10.95;;;18.60;99.90;;;;;;4998439;28;20061;-65
2023/05/06 10:15:52;;;;;;;13.63;11.63;;;18.40;99.90;;;;;;4999875;28;20046;-73
2023/05/06 10:18:20;;;;;;;13.25;11.30;;;18.60;99.90;;;;;;4998291;28;20064;-59
2023/05/06 10:20:47;;;;;;;11.93;10.55;;;18.80;99.90;;;;;;5000230;28;20046;-65
2023/05/06 10:23:30;;;;;;;13.52;11.35;;;18.90;99.90;;;;;;4997118;28;20117;-54
2023/05/06 10:25:59;;;;;;;11.95;10.63;;;19.00;99.90;;;;;;4999014;28;20046;-53
2023/05/06 10:28:28;;;;;;;12.50;10.77;;;19.20;99.90;;;;;;5006233;28;20046;-64
2023/05/06 10:30:56;;;;;;;13.70;10.45;;;19.30;99.90;;;;;;5015556;28;20049;-53
2023/05/06 10:33:24;;;;;;;14.13;10.45;;;19.60;99.90;;;;;;4998417;28;20480;-71
2023/05/06 10:36:10;;;;;;;15.00;11.30;;;19.50;99.90;;;;;;5012324;28;20046;-70
2023/05/06 10:38:41;;;;;;;13.75;11.50;;;19.40;99.90;;;;;;5001282;28;20050;-62
2023/05/06 10:41:08;;;;;;;11.73;10.18;;;19.80;99.90;;;;;;5015136;28;20397;-61
2023/05/06 10:43:40;;;;;;;13.25;10.80;;;20.00;99.90;;;;;;5011373;28;20433;-70
2023/05/06 10:46:26;;;;;;;13.10;10.68;;;20.10;99.90;;;;;;5023287;28;20057;-71
2023/05/06 10:49:10;;;;;;;12.35;11.05;;;19.80;99.90;;;;;;5021648;28;20763;-62
2023/05/06 10:51:36;;;;;;;13.05;11.07;;;19.80;99.90;;;;;;5022875;28;20133;-61
2023/05/06 10:54:18;;;;;;;14.20;11.65;;;19.80;99.90;;;;;;5022420;28;20037;-68
2023/05/06 10:56:50;;;;;;;12.55;11.23;;;19.80;99.90;;;;;;5022212;28;20045;-70
2023/05/06 10:59:21;;;;;;;12.40;11.05;;;19.70;99.90;;;;;;5022877;28;20459;-73
2023/05/06 11:02:06;;;;;;;14.23;12.15;;;19.80;99.90;;;;;;5022697;28;20141;-63
2023/05/06 11:04:32;;;;;;;13.27;11.80;;;19.60;99.90;;;;;;5021905;28;20537;-65
2023/05/06 11:07:12;;;;;;;15.82;11.57;;;19.50;99.90;;;;;;5021516;28;20149;-71
2023/05/06 11:10:09;;;;;;;12.57;11.27;;;19.40;99.90;;;;;;5023022;28;20120;-54
2023/05/06 11:12:51;;;;;;;14.77;9.85;;;19.70;99.90;;;;;;5002268;28;20370;-63
2023/05/06 11:15:23;;;;;;;13.93;11.02;;;19.80;99.90;;;;;;5022233;28;20037;-62
2023/05/06 11:17:48;;;;;;;11.40;10.05;;;19.90;99.90;;;;;;5021647;28;20045;-72
2023/05/06 11:20:22;;;;;;;11.70;10.38;;;20.00;99.90;;;;;;5022022;28;20113;-69
2023/05/06 11:22:48;;;;;;;11.10;9.90;;;20.00;99.90;;;;;;5022650;28;20128;-64
2023/05/06 11:25:34;;;;;;;13.23;10.07;;;20.00;99.90;;;;;;5021238;28;20045;-52
2023/05/06 11:28:00;;;;;;;11.95;9.93;;;19.90;99.90;;;;;;5022176;28;20463;-62
2023/05/06 11:30:26;;;;;;;11.23;9.55;;;20.10;99.90;;;;;;5021294;28;20049;-72
2023/05/06 11:32:54;;;;;;;10.95;8.88;;;20.30;99.90;;;;;;5020858;28;20079;-67
2023/05/06 11:35:21;;;;;;;13.20;9.25;;;20.30;99.90;;;;;;5022254;28;20447;-70
2023/05/06 11:37:47;;;;;;;12.25;10.00;;;20.20;99.90;;;;;;5021229;28;20053;-57
2023/05/06 11:40:14;;;;;;;15.00;11.00;;;20.20;99.90;;;;;;5012378;28;20048;-63
2023/05/06 11:42:40;;;;;;;9.75;8.27;;;20.00;99.90;;;;;;5011189;28;20057;-55
2023/05/06 11:45:06;;;;;;;11.80;8.18;;;19.90;99.90;;;;;;5016308;28;20421;-61
2023/05/06 11:47:32;;;;;;;12.85;9.20;;;19.90;99.90;;;;;;5011871;28;20181;-59
2023/05/06 11:49:58;;;;;;;12.65;10.70;;;19.90;99.90;;;;;;5012251;28;20037;-63
2023/05/06 11:52:24;;;;;;;13.38;9.18;;;19.80;99.90;;;;;;5013805;28;20680;-56
2023/05/06 11:54:52;;;;;;;13.63;10.80;;;19.70;99.90;;;;;;5012029;28;20117;-51
2023/05/06 11:57:19;;;;;;;15.32;11.55;;;19.50;99.90;;;;;;4993984;28;20245;-73
2023/05/06 11:59:45;;;;;;;14.43;11.82;;;19.50;99.90;;;;;;5014230;28;20450;-68
2023/05/06 12:02:12;;;;;;;12.88;11.23;;;19.30;99.90;;;;;;5012547;28;20038;-75
2023/05/06 12:04:42;;;;;;;12.52;9.80;;;19.30;99.90;;;;;;5010656;28;20451;-70
2023/05/06 12:07:10;;;;;;;11.38;8.75;;;19.40;99.90;;;;;;5013706;28;20392;-60
2023/05/06 12:09:38;;;;;;;13.57;11.00;;;19.50;99.90;;;;;;5012379;28;20125;-61
2023/05/06 12:12:04;;;;;;;13.35;10.85;;;19.70;99.90;;;;;;5010943;28;20092;-67
2023/05/06 12:14:31;;;;;;;11.55;10.35;;;20.00;99.90;;;;;;5012752;28;20651;-70
2023/05/06 12:16:57;;;;;;;12.35;10.80;;;20.20;99.90;;;;;;5012726;28;20432;-72
2023/05/06 12:19:23;;;;;;;9.18;7.72;;;20.40;99.90;;;;;;5009234;28;20517;-55
2023/05/06 12:21:49;;;;;;;13.07;10.35;;;20.40;99.90;;;;;;5013160;28;20060;-72
2023/05/06 12:24:27;;;;;;;10.15;8.32;;;20.50;99.90;;;;;;5011958;28;20038;-66
2023/05/06 12:26:54;;;;;;;9.95;8.88;;;20.40;99.90;;;;;;5012520;28;20037;-72
2023/05/06 12:29:20;;;;;;;11.40;10.02;;;20.20;99.90;;;;;;4994964;28;20394;-69